sensor_id;sensor_type;location;lat;lon;timestamp;P1;durP1;ratioP1;P2;durP2;ratioP2
9536;SDS011;4807;48.024;11.726;2022-08-01T00:00:39;1.50;;;1.30;;
9536;SDS011;4807;48.024;11.726;2022-08-01T00:03:48;1.83;;;1.43;;
9536;SDS011;4807;48.024;11.726;2022-08-01T00:06:58;2.97;;;1.20;;
9536;SDS011;4807;48.024;11.726;2022-08-01T00:10:07;1.80;;;1.43;;
9536;SDS011;4807;48.024;11.726;2022-08-01T00:13:19;1.60;;;1.47;;
9536;SDS011;4807;48.024;11.726;2022-08-01T00:16:32;1.57;;;1.43;;
9536;SDS011;4807;48.024;11.726;2022-08-01T00:19:40;1.40;;;1.30;;
9536;SDS011;4807;48.024;11.726;2022-08-01T00:22:50;1.47;;;1.27;;
9536;SDS011;4807;48.024;11.726;2022-08-01T00:25:59;1.33;;;1.23;;
9536;SDS011;4807;48.024;11.726;2022-08-01T00:29:07;1.10;;;1.10;;
9536;SDS011;4807;48.024;11.726;2022-08-01T00:32:36;1.63;;;1.30;;
9536;SDS011;4807;48.024;11.726;2022-08-01T00:35:45;1.63;;;1.07;;
9536;SDS011;4807;48.024;11.726;2022-08-01T00:38:55;2.17;;;1.20;;
9536;SDS011;4807;48.024;11.726;2022-08-01T00:42:05;2.57;;;1.30;;
9536;SDS011;4807;48.024;11.726;2022-08-01T00:45:17;1.27;;;1.17;;
9536;SDS011;4807;48.024;11.726;2022-08-01T00:48:25;1.53;;;1.43;;
9536;SDS011;4807;48.024;11.726;2022-08-01T00:51:34;2.17;;;1.23;;
9536;SDS011;4807;48.024;11.726;2022-08-01T00:54:44;1.83;;;1.33;;
9536;SDS011;4807;48.024;11.726;2022-08-01T00:57:53;2.73;;;1.20;;
9536;SDS011;4807;48.024;11.726;2022-08-01T01:01:12;1.20;;;1.10;;
9536;SDS011;4807;48.024;11.726;2022-08-01T01:04:21;1.30;;;1.20;;
9536;SDS011;4807;48.024;11.726;2022-08-01T01:07:32;1.93;;;1.20;;
9536;SDS011;4807;48.024;11.726;2022-08-01T01:10:57;2.00;;;1.70;;
9536;SDS011;4807;48.024;11.726;2022-08-01T01:14:16;1.53;;;1.10;;
9536;SDS011;4807;48.024;11.726;2022-08-01T01:17:45;1.43;;;1.33;;
9536;SDS011;4807;48.024;11.726;2022-08-01T01:21:07;1.30;;;1.17;;
9536;SDS011;4807;48.024;11.726;2022-08-01T01:25:03;2.00;;;1.07;;
9536;SDS011;4807;48.024;11.726;2022-08-01T01:28:26;1.60;;;1.40;;
9536;SDS011;4807;48.024;11.726;2022-08-01T01:31:46;1.67;;;1.33;;
9536;SDS011;4807;48.024;11.726;2022-08-01T01:35:04;1.37;;;1.33;;
9536;SDS011;4807;48.024;11.726;2022-08-01T01:38:17;1.30;;;1.20;;
9536;SDS011;4807;48.024;11.726;2022-08-01T01:41:30;1.50;;;1.40;;
9536;SDS011;4807;48.024;11.726;2022-08-01T01:44:39;3.00;;;1.60;;
9536;SDS011;4807;48.024;11.726;2022-08-01T01:47:52;1.67;;;1.20;;
9536;SDS011;4807;48.024;11.726;2022-08-01T01:51:03;1.47;;;1.37;;
9536;SDS011;4807;48.024;11.726;2022-08-01T01:54:13;1.50;;;1.30;;
9536;SDS011;4807;48.024;11.726;2022-08-01T01:57:21;1.00;;;1.00;;
9536;SDS011;4807;48.024;11.726;2022-08-01T02:00:31;1.33;;;1.20;;
9536;SDS011;4807;48.024;11.726;2022-08-01T02:03:43;1.13;;;1.13;;
9536;SDS011;4807;48.024;11.726;2022-08-01T02:06:53;1.67;;;1.50;;
9536;SDS011;4807;48.024;11.726;2022-08-01T02:10:04;1.30;;;1.20;;
9536;SDS011;4807;48.024;11.726;2022-08-01T02:13:15;2.87;;;1.43;;
9536;SDS011;4807;48.024;11.726;2022-08-01T02:16:27;1.10;;;1.10;;
9536;SDS011;4807;48.024;11.726;2022-08-01T02:19:43;3.23;;;1.40;;
9536;SDS011;4807;48.024;11.726;2022-08-01T02:22:53;1.53;;;1.17;;
9536;SDS011;4807;48.024;11.726;2022-08-01T02:26:13;2.23;;;1.70;;
9536;SDS011;4807;48.024;11.726;2022-08-01T02:29:27;1.87;;;1.73;;
9536;SDS011;4807;48.024;11.726;2022-08-01T02:32:51;1.63;;;1.53;;
9536;SDS011;4807;48.024;11.726;2022-08-01T02:36:09;1.53;;;1.43;;
9536;SDS011;4807;48.024;11.726;2022-08-01T02:39:38;1.57;;;1.47;;
9536;SDS011;4807;48.024;11.726;2022-08-01T02:42:49;1.37;;;1.10;;
9536;SDS011;4807;48.024;11.726;2022-08-01T02:46:00;3.90;;;1.27;;
9536;SDS011;4807;48.024;11.726;2022-08-01T02:49:17;1.30;;;1.30;;
9536;SDS011;4807;48.024;11.726;2022-08-01T02:52:32;1.50;;;1.20;;
9536;SDS011;4807;48.024;11.726;2022-08-01T02:55:42;2.30;;;1.40;;
9536;SDS011;4807;48.024;11.726;2022-08-01T02:58:54;1.87;;;1.37;;
9536;SDS011;4807;48.024;11.726;2022-08-01T03:02:03;1.87;;;1.10;;
9536;SDS011;4807;48.024;11.726;2022-08-01T03:05:15;1.60;;;1.50;;
9536;SDS011;4807;48.024;11.726;2022-08-01T03:08:26;2.37;;;1.70;;
9536;SDS011;4807;48.024;11.726;2022-08-01T03:11:37;1.30;;;1.30;;
9536;SDS011;4807;48.024;11.726;2022-08-01T03:14:49;2.50;;;1.30;;
9536;SDS011;4807;48.024;11.726;2022-08-01T03:18:02;2.97;;;1.43;;
9536;SDS011;4807;48.024;11.726;2022-08-01T03:21:13;1.67;;;1.30;;
9536;SDS011;4807;48.024;11.726;2022-08-01T03:24:25;1.77;;;1.33;;
9536;SDS011;4807;48.024;11.726;2022-08-01T03:27:35;2.07;;;1.30;;
9536;SDS011;4807;48.024;11.726;2022-08-01T03:30:44;1.83;;;1.53;;
9536;SDS011;4807;48.024;11.726;2022-08-01T03:33:57;1.40;;;1.33;;
9536;SDS011;4807;48.024;11.726;2022-08-01T03:37:12;1.90;;;1.80;;
9536;SDS011;4807;48.024;11.726;2022-08-01T03:40:34;3.37;;;1.33;;
9536;SDS011;4807;48.024;11.726;2022-08-01T03:43:48;1.70;;;1.60;;
9536;SDS011;4807;48.024;11.726;2022-08-01T03:47:05;4.67;;;1.63;;
9536;SDS011;4807;48.024;11.726;2022-08-01T03:50:17;1.43;;;1.33;;
9536;SDS011;4807;48.024;11.726;2022-08-01T03:53:30;5.03;;;1.80;;
9536;SDS011;4807;48.024;11.726;2022-08-01T03:56:47;1.70;;;1.60;;
9536;SDS011;4807;48.024;11.726;2022-08-01T03:59:58;1.23;;;1.23;;
9536;SDS011;4807;48.024;11.726;2022-08-01T04:03:17;4.10;;;1.60;;
9536;SDS011;4807;48.024;11.726;2022-08-01T04:06:27;2.13;;;1.43;;
9536;SDS011;4807;48.024;11.726;2022-08-01T04:09:36;2.30;;;1.33;;
9536;SDS011;4807;48.024;11.726;2022-08-01T04:12:48;2.27;;;1.60;;
9536;SDS011;4807;48.024;11.726;2022-08-01T04:15:57;1.20;;;1.20;;
9536;SDS011;4807;48.024;11.726;2022-08-01T04:19:06;1.73;;;1.53;;
9536;SDS011;4807;48.024;11.726;2022-08-01T04:22:15;1.47;;;1.37;;
9536;SDS011;4807;48.024;11.726;2022-08-01T04:25:35;2.60;;;1.53;;
9536;SDS011;4807;48.024;11.726;2022-08-01T04:28:50;1.50;;;1.40;;
9536;SDS011;4807;48.024;11.726;2022-08-01T04:32:02;1.53;;;1.43;;
9536;SDS011;4807;48.024;11.726;2022-08-01T04:35:14;1.67;;;1.57;;
9536;SDS011;4807;48.024;11.726;2022-08-01T04:38:48;1.80;;;1.40;;
9536;SDS011;4807;48.024;11.726;2022-08-01T04:42:03;1.20;;;1.20;;
9536;SDS011;4807;48.024;11.726;2022-08-01T04:45:15;1.27;;;1.27;;
9536;SDS011;4807;48.024;11.726;2022-08-01T04:48:24;1.63;;;1.20;;
9536;SDS011;4807;48.024;11.726;2022-08-01T04:51:35;2.33;;;1.53;;
9536;SDS011;4807;48.024;11.726;2022-08-01T04:54:43;1.50;;;1.40;;
9536;SDS011;4807;48.024;11.726;2022-08-01T04:57:52;1.83;;;1.50;;
9536;SDS011;4807;48.024;11.726;2022-08-01T05:01:02;1.97;;;1.40;;
9536;SDS011;4807;48.024;11.726;2022-08-01T05:04:10;1.93;;;1.83;;
9536;SDS011;4807;48.024;11.726;2022-08-01T05:07:19;4.80;;;1.63;;
9536;SDS011;4807;48.024;11.726;2022-08-01T05:10:27;1.67;;;1.47;;
9536;SDS011;4807;48.024;11.726;2022-08-01T05:13:37;5.90;;;1.50;;
9536;SDS011;4807;48.024;11.726;2022-08-01T05:16:47;1.57;;;1.47;;
9536;SDS011;4807;48.024;11.726;2022-08-01T05:19:56;2.73;;;1.70;;
9536;SDS011;4807;48.024;11.726;2022-08-01T05:23:04;2.50;;;2.33;;
9536;SDS011;4807;48.024;11.726;2022-08-01T05:26:25;1.73;;;1.30;;
9536;SDS011;4807;48.024;11.726;2022-08-01T05:29:34;1.63;;;1.40;;
9536;SDS011;4807;48.024;11.726;2022-08-01T05:32:54;2.70;;;1.77;;
9536;SDS011;4807;48.024;11.726;2022-08-01T05:36:02;1.97;;;1.87;;
9536;SDS011;4807;48.024;11.726;2022-08-01T05:39:12;2.50;;;2.00;;
9536;SDS011;4807;48.024;11.726;2022-08-01T05:42:21;2.10;;;1.47;;
9536;SDS011;4807;48.024;11.726;2022-08-01T05:45:29;2.10;;;1.27;;
9536;SDS011;4807;48.024;11.726;2022-08-01T05:48:39;1.43;;;1.33;;
9536;SDS011;4807;48.024;11.726;2022-08-01T05:51:47;1.70;;;1.40;;
9536;SDS011;4807;48.024;11.726;2022-08-01T05:54:55;2.77;;;1.60;;
9536;SDS011;4807;48.024;11.726;2022-08-01T05:58:04;1.97;;;1.70;;
9536;SDS011;4807;48.024;11.726;2022-08-01T06:01:17;1.60;;;1.33;;
9536;SDS011;4807;48.024;11.726;2022-08-01T06:04:28;2.10;;;1.40;;
9536;SDS011;4807;48.024;11.726;2022-08-01T06:07:37;1.40;;;1.30;;
9536;SDS011;4807;48.024;11.726;2022-08-01T06:10:46;1.90;;;1.30;;
9536;SDS011;4807;48.024;11.726;2022-08-01T06:13:54;1.97;;;1.43;;
9536;SDS011;4807;48.024;11.726;2022-08-01T06:17:02;2.00;;;1.43;;
9536;SDS011;4807;48.024;11.726;2022-08-01T06:20:13;1.20;;;1.13;;
9536;SDS011;4807;48.024;11.726;2022-08-01T06:23:30;2.27;;;1.20;;
9536;SDS011;4807;48.024;11.726;2022-08-01T06:26:38;1.97;;;1.30;;
9536;SDS011;4807;48.024;11.726;2022-08-01T06:29:46;1.73;;;1.30;;
9536;SDS011;4807;48.024;11.726;2022-08-01T06:32:59;1.27;;;1.17;;
9536;SDS011;4807;48.024;11.726;2022-08-01T06:36:10;2.10;;;1.10;;
9536;SDS011;4807;48.024;11.726;2022-08-01T06:39:19;4.03;;;1.40;;
9536;SDS011;4807;48.024;11.726;2022-08-01T06:42:27;3.60;;;1.70;;
9536;SDS011;4807;48.024;11.726;2022-08-01T06:45:37;1.90;;;1.17;;
9536;SDS011;4807;48.024;11.726;2022-08-01T06:48:47;1.60;;;1.40;;
9536;SDS011;4807;48.024;11.726;2022-08-01T06:51:57;1.20;;;1.10;;
9536;SDS011;4807;48.024;11.726;2022-08-01T06:55:05;2.17;;;1.30;;
9536;SDS011;4807;48.024;11.726;2022-08-01T06:58:15;2.17;;;1.63;;
9536;SDS011;4807;48.024;11.726;2022-08-01T07:01:23;1.97;;;1.40;;
9536;SDS011;4807;48.024;11.726;2022-08-01T07:04:32;1.67;;;1.27;;
9536;SDS011;4807;48.024;11.726;2022-08-01T07:07:42;2.27;;;1.60;;
9536;SDS011;4807;48.024;11.726;2022-08-01T07:10:50;2.27;;;1.20;;
9536;SDS011;4807;48.024;11.726;2022-08-01T07:13:59;1.50;;;1.37;;
9536;SDS011;4807;48.024;11.726;2022-08-01T07:17:07;4.53;;;1.80;;
9536;SDS011;4807;48.024;11.726;2022-08-01T07:20:16;1.83;;;1.40;;
9536;SDS011;4807;48.024;11.726;2022-08-01T07:23:26;1.40;;;1.30;;
9536;SDS011;4807;48.024;11.726;2022-08-01T07:26:42;2.03;;;1.60;;
9536;SDS011;4807;48.024;11.726;2022-08-01T07:29:59;1.27;;;1.10;;
9536;SDS011;4807;48.024;11.726;2022-08-01T07:33:08;1.40;;;1.30;;
9536;SDS011;4807;48.024;11.726;2022-08-01T07:36:16;2.90;;;1.90;;
9536;SDS011;4807;48.024;11.726;2022-08-01T07:39:27;1.50;;;1.40;;
9536;SDS011;4807;48.024;11.726;2022-08-01T07:42:35;2.73;;;1.30;;
9536;SDS011;4807;48.024;11.726;2022-08-01T07:45:44;1.57;;;1.50;;
9536;SDS011;4807;48.024;11.726;2022-08-01T07:48:52;1.30;;;1.20;;
9536;SDS011;4807;48.024;11.726;2022-08-01T07:52:01;1.83;;;1.33;;
9536;SDS011;4807;48.024;11.726;2022-08-01T07:55:12;2.30;;;1.50;;
9536;SDS011;4807;48.024;11.726;2022-08-01T07:58:22;1.83;;;1.50;;
9536;SDS011;4807;48.024;11.726;2022-08-01T08:01:30;1.70;;;1.60;;
9536;SDS011;4807;48.024;11.726;2022-08-01T08:04:38;2.03;;;1.40;;
9536;SDS011;4807;48.024;11.726;2022-08-01T08:07:54;2.23;;;1.17;;
9536;SDS011;4807;48.024;11.726;2022-08-01T08:11:04;1.50;;;1.40;;
9536;SDS011;4807;48.024;11.726;2022-08-01T08:14:12;3.83;;;1.50;;
9536;SDS011;4807;48.024;11.726;2022-08-01T08:17:26;2.03;;;1.17;;
9536;SDS011;4807;48.024;11.726;2022-08-01T08:20:41;3.00;;;1.60;;
9536;SDS011;4807;48.024;11.726;2022-08-01T08:23:50;2.57;;;1.30;;
9536;SDS011;4807;48.024;11.726;2022-08-01T08:27:19;1.40;;;1.30;;
9536;SDS011;4807;48.024;11.726;2022-08-01T08:30:27;1.40;;;1.30;;
9536;SDS011;4807;48.024;11.726;2022-08-01T08:33:37;1.60;;;1.50;;
9536;SDS011;4807;48.024;11.726;2022-08-01T08:36:45;3.77;;;1.70;;
9536;SDS011;4807;48.024;11.726;2022-08-01T08:39:55;1.57;;;1.27;;
9536;SDS011;4807;48.024;11.726;2022-08-01T08:43:05;1.40;;;1.30;;
9536;SDS011;4807;48.024;11.726;2022-08-01T08:46:13;3.93;;;1.50;;
9536;SDS011;4807;48.024;11.726;2022-08-01T08:49:33;2.30;;;1.40;;
9536;SDS011;4807;48.024;11.726;2022-08-01T08:52:48;1.50;;;1.40;;
9536;SDS011;4807;48.024;11.726;2022-08-01T08:56:00;2.20;;;1.33;;
9536;SDS011;4807;48.024;11.726;2022-08-01T08:59:12;1.60;;;1.50;;
9536;SDS011;4807;48.024;11.726;2022-08-01T09:02:21;2.10;;;1.90;;
9536;SDS011;4807;48.024;11.726;2022-08-01T09:05:31;1.90;;;1.33;;
9536;SDS011;4807;48.024;11.726;2022-08-01T09:08:44;1.50;;;1.40;;
9536;SDS011;4807;48.024;11.726;2022-08-01T09:11:54;1.43;;;1.20;;
9536;SDS011;4807;48.024;11.726;2022-08-01T09:15:05;1.40;;;1.30;;
9536;SDS011;4807;48.024;11.726;2022-08-01T09:18:25;1.50;;;1.40;;
9536;SDS011;4807;48.024;11.726;2022-08-01T09:21:38;3.10;;;1.50;;
9536;SDS011;4807;48.024;11.726;2022-08-01T09:28:13;1.00;;;1.00;;
9536;SDS011;4807;48.024;11.726;2022-08-01T09:31:23;3.83;;;1.30;;
9536;SDS011;4807;48.024;11.726;2022-08-01T09:34:44;1.50;;;1.10;;
9536;SDS011;4807;48.024;11.726;2022-08-01T09:37:57;1.10;;;1.10;;
9536;SDS011;4807;48.024;11.726;2022-08-01T09:41:30;2.10;;;0.90;;
9536;SDS011;4807;48.024;11.726;2022-08-01T09:44:45;1.27;;;1.00;;
9536;SDS011;4807;48.024;11.726;2022-08-01T09:48:06;2.03;;;1.03;;
9536;SDS011;4807;48.024;11.726;2022-08-01T09:51:26;2.80;;;1.10;;
9536;SDS011;4807;48.024;11.726;2022-08-01T09:54:58;0.93;;;0.80;;
9536;SDS011;4807;48.024;11.726;2022-08-01T09:58:13;1.57;;;1.10;;
9536;SDS011;4807;48.024;11.726;2022-08-01T10:01:22;1.73;;;0.83;;
9536;SDS011;4807;48.024;11.726;2022-08-01T10:04:32;1.50;;;1.20;;
9536;SDS011;4807;48.024;11.726;2022-08-01T10:07:55;1.50;;;1.40;;
9536;SDS011;4807;48.024;11.726;2022-08-01T10:11:07;2.43;;;1.17;;
9536;SDS011;4807;48.024;11.726;2022-08-01T10:14:17;2.67;;;1.10;;
9536;SDS011;4807;48.024;11.726;2022-08-01T10:17:26;2.00;;;1.00;;
9536;SDS011;4807;48.024;11.726;2022-08-01T10:20:57;1.03;;;0.90;;
9536;SDS011;4807;48.024;11.726;2022-08-01T10:24:14;1.30;;;1.10;;
9536;SDS011;4807;48.024;11.726;2022-08-01T10:27:26;0.97;;;0.90;;
9536;SDS011;4807;48.024;11.726;2022-08-01T10:30:44;1.30;;;1.20;;
9536;SDS011;4807;48.024;11.726;2022-08-01T10:33:54;2.13;;;0.90;;
9536;SDS011;4807;48.024;11.726;2022-08-01T10:37:08;0.73;;;0.73;;
9536;SDS011;4807;48.024;11.726;2022-08-01T10:40:19;1.23;;;0.90;;
9536;SDS011;4807;48.024;11.726;2022-08-01T10:43:36;0.83;;;0.83;;
9536;SDS011;4807;48.024;11.726;2022-08-01T10:46:46;1.17;;;1.07;;
9536;SDS011;4807;48.024;11.726;2022-08-01T10:50:02;0.80;;;0.80;;
9536;SDS011;4807;48.024;11.726;2022-08-01T10:53:28;2.63;;;0.97;;
9536;SDS011;4807;48.024;11.726;2022-08-01T10:56:49;1.50;;;0.70;;
9536;SDS011;4807;48.024;11.726;2022-08-01T10:59:58;2.00;;;0.80;;
9536;SDS011;4807;48.024;11.726;2022-08-01T11:03:11;1.30;;;0.80;;
9536;SDS011;4807;48.024;11.726;2022-08-01T11:06:20;0.93;;;0.93;;
9536;SDS011;4807;48.024;11.726;2022-08-01T11:09:41;3.17;;;1.13;;
9536;SDS011;4807;48.024;11.726;2022-08-01T11:12:57;1.77;;;0.90;;
9536;SDS011;4807;48.024;11.726;2022-08-01T11:16:24;1.10;;;1.00;;
9536;SDS011;4807;48.024;11.726;2022-08-01T11:23:15;0.83;;;0.80;;
9536;SDS011;4807;48.024;11.726;2022-08-01T11:26:28;2.30;;;0.80;;
9536;SDS011;4807;48.024;11.726;2022-08-01T11:29:37;1.50;;;0.77;;
9536;SDS011;4807;48.024;11.726;2022-08-01T11:32:46;1.90;;;0.80;;
9536;SDS011;4807;48.024;11.726;2022-08-01T11:36:17;0.77;;;0.77;;
9536;SDS011;4807;48.024;11.726;2022-08-01T11:43:25;1.13;;;0.90;;
9536;SDS011;4807;48.024;11.726;2022-08-01T11:46:47;1.97;;;0.60;;
9536;SDS011;4807;48.024;11.726;2022-08-01T11:50:31;2.80;;;0.90;;
9536;SDS011;4807;48.024;11.726;2022-08-01T11:53:45;1.60;;;0.80;;
9536;SDS011;4807;48.024;11.726;2022-08-01T11:56:59;0.77;;;0.77;;
9536;SDS011;4807;48.024;11.726;2022-08-01T12:00:17;0.60;;;0.60;;
9536;SDS011;4807;48.024;11.726;2022-08-01T12:03:27;1.70;;;0.90;;
9536;SDS011;4807;48.024;11.726;2022-08-01T12:06:39;1.00;;;1.00;;
9536;SDS011;4807;48.024;11.726;2022-08-01T12:09:48;1.00;;;0.73;;
9536;SDS011;4807;48.024;11.726;2022-08-01T12:13:05;0.80;;;0.70;;
9536;SDS011;4807;48.024;11.726;2022-08-01T12:16:15;1.03;;;0.70;;
9536;SDS011;4807;48.024;11.726;2022-08-01T12:19:29;1.00;;;0.77;;
9536;SDS011;4807;48.024;11.726;2022-08-01T12:22:37;0.60;;;0.60;;
9536;SDS011;4807;48.024;11.726;2022-08-01T12:25:50;0.80;;;0.80;;
9536;SDS011;4807;48.024;11.726;2022-08-01T12:28:59;1.53;;;0.97;;
9536;SDS011;4807;48.024;11.726;2022-08-01T12:32:21;0.73;;;0.60;;
9536;SDS011;4807;48.024;11.726;2022-08-01T12:35:41;0.60;;;0.60;;
9536;SDS011;4807;48.024;11.726;2022-08-01T12:38:52;1.90;;;0.50;;
9536;SDS011;4807;48.024;11.726;2022-08-01T12:42:00;0.70;;;0.70;;
9536;SDS011;4807;48.024;11.726;2022-08-01T12:45:15;1.00;;;0.70;;
9536;SDS011;4807;48.024;11.726;2022-08-01T12:48:31;1.07;;;0.87;;
9536;SDS011;4807;48.024;11.726;2022-08-01T12:51:40;0.83;;;0.73;;
9536;SDS011;4807;48.024;11.726;2022-08-01T12:55:03;1.07;;;0.80;;
9536;SDS011;4807;48.024;11.726;2022-08-01T12:58:16;1.00;;;0.90;;
9536;SDS011;4807;48.024;11.726;2022-08-01T13:01:26;1.50;;;0.80;;
9536;SDS011;4807;48.024;11.726;2022-08-01T13:04:50;0.80;;;0.80;;
9536;SDS011;4807;48.024;11.726;2022-08-01T13:07:59;0.70;;;0.70;;
9536;SDS011;4807;48.024;11.726;2022-08-01T13:11:17;1.37;;;0.87;;
9536;SDS011;4807;48.024;11.726;2022-08-01T13:14:26;1.50;;;0.70;;
9536;SDS011;4807;48.024;11.726;2022-08-01T13:17:35;2.40;;;0.80;;
9536;SDS011;4807;48.024;11.726;2022-08-01T13:20:46;0.70;;;0.63;;
9536;SDS011;4807;48.024;11.726;2022-08-01T13:24:02;0.43;;;0.43;;
9536;SDS011;4807;48.024;11.726;2022-08-01T13:27:19;0.40;;;0.40;;
9536;SDS011;4807;48.024;11.726;2022-08-01T13:30:31;1.03;;;0.60;;
9536;SDS011;4807;48.024;11.726;2022-08-01T13:33:40;0.70;;;0.67;;
9536;SDS011;4807;48.024;11.726;2022-08-01T13:37:00;0.70;;;0.60;;
9536;SDS011;4807;48.024;11.726;2022-08-01T13:40:12;0.53;;;0.53;;
9536;SDS011;4807;48.024;11.726;2022-08-01T13:43:32;3.23;;;0.70;;
9536;SDS011;4807;48.024;11.726;2022-08-01T13:47:01;1.07;;;0.47;;
9536;SDS011;4807;48.024;11.726;2022-08-01T13:50:22;0.90;;;0.50;;
9536;SDS011;4807;48.024;11.726;2022-08-01T13:53:32;2.00;;;0.57;;
9536;SDS011;4807;48.024;11.726;2022-08-01T13:56:40;0.60;;;0.60;;
9536;SDS011;4807;48.024;11.726;2022-08-01T13:59:48;0.53;;;0.53;;
9536;SDS011;4807;48.024;11.726;2022-08-01T14:02:58;1.37;;;0.60;;
9536;SDS011;4807;48.024;11.726;2022-08-01T14:06:06;0.53;;;0.50;;
9536;SDS011;4807;48.024;11.726;2022-08-01T14:09:16;1.53;;;0.70;;
9536;SDS011;4807;48.024;11.726;2022-08-01T14:12:29;1.33;;;0.40;;
9536;SDS011;4807;48.024;11.726;2022-08-01T14:15:38;3.20;;;0.60;;
9536;SDS011;4807;48.024;11.726;2022-08-01T14:18:49;2.13;;;0.50;;
9536;SDS011;4807;48.024;11.726;2022-08-01T14:21:57;0.80;;;0.40;;
9536;SDS011;4807;48.024;11.726;2022-08-01T14:25:08;0.77;;;0.37;;
9536;SDS011;4807;48.024;11.726;2022-08-01T14:28:29;0.50;;;0.40;;
9536;SDS011;4807;48.024;11.726;2022-08-01T14:31:39;1.03;;;0.50;;
9536;SDS011;4807;48.024;11.726;2022-08-01T14:34:47;2.77;;;0.70;;
9536;SDS011;4807;48.024;11.726;2022-08-01T14:37:56;0.60;;;0.50;;
9536;SDS011;4807;48.024;11.726;2022-08-01T14:41:07;0.50;;;0.40;;
9536;SDS011;4807;48.024;11.726;2022-08-01T14:44:15;0.93;;;0.53;;
9536;SDS011;4807;48.024;11.726;2022-08-01T14:47:23;0.50;;;0.50;;
9536;SDS011;4807;48.024;11.726;2022-08-01T14:50:32;0.77;;;0.67;;
9536;SDS011;4807;48.024;11.726;2022-08-01T14:53:40;3.77;;;0.60;;
9536;SDS011;4807;48.024;11.726;2022-08-01T14:56:57;0.83;;;0.40;;
9536;SDS011;4807;48.024;11.726;2022-08-01T15:00:06;0.50;;;0.50;;
9536;SDS011;4807;48.024;11.726;2022-08-01T15:03:18;0.30;;;0.30;;
9536;SDS011;4807;48.024;11.726;2022-08-01T15:06:26;0.30;;;0.30;;
9536;SDS011;4807;48.024;11.726;2022-08-01T15:09:37;0.60;;;0.40;;
9536;SDS011;4807;48.024;11.726;2022-08-01T15:12:47;0.50;;;0.37;;
9536;SDS011;4807;48.024;11.726;2022-08-01T15:15:56;0.43;;;0.40;;
9536;SDS011;4807;48.024;11.726;2022-08-01T15:19:05;0.30;;;0.30;;
9536;SDS011;4807;48.024;11.726;2022-08-01T15:22:14;1.17;;;0.80;;
9536;SDS011;4807;48.024;11.726;2022-08-01T15:25:22;2.00;;;1.10;;
9536;SDS011;4807;48.024;11.726;2022-08-01T15:28:47;2.73;;;0.60;;
9536;SDS011;4807;48.024;11.726;2022-08-01T15:31:55;2.40;;;0.60;;
9536;SDS011;4807;48.024;11.726;2022-08-01T15:35:05;0.60;;;0.60;;
9536;SDS011;4807;48.024;11.726;2022-08-01T15:38:16;2.37;;;0.70;;
9536;SDS011;4807;48.024;11.726;2022-08-01T15:41:25;0.70;;;0.70;;
9536;SDS011;4807;48.024;11.726;2022-08-01T15:44:35;1.43;;;0.70;;
9536;SDS011;4807;48.024;11.726;2022-08-01T15:47:44;1.43;;;0.80;;
9536;SDS011;4807;48.024;11.726;2022-08-01T15:50:52;1.67;;;1.03;;
9536;SDS011;4807;48.024;11.726;2022-08-01T15:54:00;1.40;;;0.80;;
9536;SDS011;4807;48.024;11.726;2022-08-01T15:57:18;0.70;;;0.70;;
9536;SDS011;4807;48.024;11.726;2022-08-01T16:00:28;1.80;;;0.80;;
9536;SDS011;4807;48.024;11.726;2022-08-01T16:03:44;0.83;;;0.70;;
9536;SDS011;4807;48.024;11.726;2022-08-01T16:06:52;0.90;;;0.90;;
9536;SDS011;4807;48.024;11.726;2022-08-01T16:10:01;2.20;;;0.90;;
9536;SDS011;4807;48.024;11.726;2022-08-01T16:13:10;0.90;;;0.77;;
9536;SDS011;4807;48.024;11.726;2022-08-01T16:16:20;2.23;;;0.90;;
9536;SDS011;4807;48.024;11.726;2022-08-01T16:19:29;1.50;;;1.00;;
9536;SDS011;4807;48.024;11.726;2022-08-01T16:22:37;2.23;;;1.00;;
9536;SDS011;4807;48.024;11.726;2022-08-01T16:25:46;2.80;;;1.33;;
9536;SDS011;4807;48.024;11.726;2022-08-01T16:28:58;0.77;;;0.77;;
9536;SDS011;4807;48.024;11.726;2022-08-01T16:32:08;0.80;;;0.80;;
9536;SDS011;4807;48.024;11.726;2022-08-01T16:35:36;3.93;;;1.00;;
9536;SDS011;4807;48.024;11.726;2022-08-01T16:38:47;2.83;;;1.20;;
9536;SDS011;4807;48.024;11.726;2022-08-01T16:41:56;1.77;;;1.10;;
9536;SDS011;4807;48.024;11.726;2022-08-01T16:45:06;1.63;;;0.90;;
9536;SDS011;4807;48.024;11.726;2022-08-01T16:48:21;2.30;;;0.90;;
9536;SDS011;4807;48.024;11.726;2022-08-01T16:51:30;2.33;;;1.80;;
9536;SDS011;4807;48.024;11.726;2022-08-01T16:54:42;5.27;;;3.50;;
9536;SDS011;4807;48.024;11.726;2022-08-01T16:57:50;7.03;;;3.00;;
9536;SDS011;4807;48.024;11.726;2022-08-01T17:00:58;10.20;;;3.53;;
9536;SDS011;4807;48.024;11.726;2022-08-01T17:04:29;2.23;;;1.50;;
9536;SDS011;4807;48.024;11.726;2022-08-01T17:07:38;0.83;;;0.83;;
9536;SDS011;4807;48.024;11.726;2022-08-01T17:10:46;5.13;;;2.10;;
9536;SDS011;4807;48.024;11.726;2022-08-01T17:13:55;2.23;;;1.30;;
9536;SDS011;4807;48.024;11.726;2022-08-01T17:17:04;3.40;;;1.10;;
9536;SDS011;4807;48.024;11.726;2022-08-01T17:20:15;4.23;;;0.70;;
9536;SDS011;4807;48.024;11.726;2022-08-01T17:23:23;0.90;;;0.70;;
9536;SDS011;4807;48.024;11.726;2022-08-01T17:26:32;2.83;;;0.90;;
9536;SDS011;4807;48.024;11.726;2022-08-01T17:29:40;1.13;;;0.70;;
9536;SDS011;4807;48.024;11.726;2022-08-01T17:32:49;1.20;;;1.00;;
9536;SDS011;4807;48.024;11.726;2022-08-01T17:35:59;2.77;;;0.93;;
9536;SDS011;4807;48.024;11.726;2022-08-01T17:39:08;0.80;;;0.80;;
9536;SDS011;4807;48.024;11.726;2022-08-01T17:42:18;0.77;;;0.70;;
9536;SDS011;4807;48.024;11.726;2022-08-01T17:45:27;0.87;;;0.87;;
9536;SDS011;4807;48.024;11.726;2022-08-01T17:48:43;2.10;;;0.70;;
9536;SDS011;4807;48.024;11.726;2022-08-01T17:51:53;0.97;;;0.90;;
9536;SDS011;4807;48.024;11.726;2022-08-01T17:55:02;1.47;;;0.73;;
9536;SDS011;4807;48.024;11.726;2022-08-01T17:58:32;0.70;;;0.70;;
9536;SDS011;4807;48.024;11.726;2022-08-01T18:01:57;1.77;;;0.70;;
9536;SDS011;4807;48.024;11.726;2022-08-01T18:05:06;0.80;;;0.70;;
9536;SDS011;4807;48.024;11.726;2022-08-01T18:08:17;1.17;;;0.60;;
9536;SDS011;4807;48.024;11.726;2022-08-01T18:11:26;0.60;;;0.60;;
9536;SDS011;4807;48.024;11.726;2022-08-01T18:14:43;0.90;;;0.80;;
9536;SDS011;4807;48.024;11.726;2022-08-01T18:17:52;0.97;;;0.70;;
9536;SDS011;4807;48.024;11.726;2022-08-01T18:21:04;1.80;;;0.70;;
9536;SDS011;4807;48.024;11.726;2022-08-01T18:24:15;1.10;;;0.60;;
9536;SDS011;4807;48.024;11.726;2022-08-01T18:27:27;0.47;;;0.47;;
9536;SDS011;4807;48.024;11.726;2022-08-01T18:30:56;1.00;;;0.90;;
9536;SDS011;4807;48.024;11.726;2022-08-01T18:34:05;0.80;;;0.80;;
9536;SDS011;4807;48.024;11.726;2022-08-01T18:37:14;0.70;;;0.70;;
9536;SDS011;4807;48.024;11.726;2022-08-01T18:40:27;2.77;;;1.43;;
9536;SDS011;4807;48.024;11.726;2022-08-01T18:43:36;0.80;;;0.80;;
9536;SDS011;4807;48.024;11.726;2022-08-01T18:46:44;0.80;;;0.80;;
9536;SDS011;4807;48.024;11.726;2022-08-01T18:49:53;0.93;;;0.80;;
9536;SDS011;4807;48.024;11.726;2022-08-01T18:53:02;0.90;;;0.90;;
9536;SDS011;4807;48.024;11.726;2022-08-01T18:56:12;1.53;;;0.97;;
9536;SDS011;4807;48.024;11.726;2022-08-01T18:59:22;2.17;;;0.90;;
9536;SDS011;4807;48.024;11.726;2022-08-01T19:02:32;1.03;;;0.70;;
9536;SDS011;4807;48.024;11.726;2022-08-01T19:05:40;0.70;;;0.70;;
9536;SDS011;4807;48.024;11.726;2022-08-01T19:08:50;1.37;;;0.70;;
9536;SDS011;4807;48.024;11.726;2022-08-01T19:12:05;0.60;;;0.57;;
9536;SDS011;4807;48.024;11.726;2022-08-01T19:15:14;1.77;;;0.90;;
9536;SDS011;4807;48.024;11.726;2022-08-01T19:18:23;0.73;;;0.70;;
9536;SDS011;4807;48.024;11.726;2022-08-01T19:21:33;1.27;;;0.80;;
9536;SDS011;4807;48.024;11.726;2022-08-01T19:24:41;1.30;;;1.07;;
9536;SDS011;4807;48.024;11.726;2022-08-01T19:27:51;1.30;;;1.03;;
9536;SDS011;4807;48.024;11.726;2022-08-01T19:31:02;3.10;;;0.80;;
9536;SDS011;4807;48.024;11.726;2022-08-01T19:34:17;0.97;;;0.83;;
9536;SDS011;4807;48.024;11.726;2022-08-01T19:37:32;1.43;;;0.90;;
9536;SDS011;4807;48.024;11.726;2022-08-01T19:40:42;1.03;;;0.80;;
9536;SDS011;4807;48.024;11.726;2022-08-01T19:43:53;1.77;;;0.80;;
9536;SDS011;4807;48.024;11.726;2022-08-01T19:47:07;1.07;;;0.90;;